Time;durP1;ratioP1;P1;durP2;ratioP2;P2;SDS_P1;SDS_P2;PMS_P1;PMS_P2;Temp;Humidity;BMP_temperature;BMP_pressure;BME280_temperature;BME280_humidity;BME280_pressure;Samples;Min_cycle;Max_cycle;Signal;HPM_P1;HPM_P2
2021/01/09 00:06:53;;;;;;;24.50;12.13;;;2.00;99.90;;;;;;4747338;26;20510;-88
2021/01/09 00:09:18;;;;;;;20.73;11.90;;;2.00;99.90;;;;;;5006811;28;20444;-90
2021/01/09 00:11:46;;;;;;;15.83;10.50;;;2.10;99.90;;;;;;5007413;28;20186;-90
2021/01/09 00:14:12;;;;;;;18.13;10.10;;;2.00;99.90;;;;;;5007491;28;20209;-91
2021/01/09 00:16:45;;;;;;;20.40;10.33;;;2.00;99.90;;;;;;5000450;28;20450;-90
2021/01/09 00:19:11;;;;;;;21.10;10.53;;;2.10;99.90;;;;;;5020282;28;20197;-89
2021/01/09 00:21:37;;;;;;;20.70;11.10;;;2.00;99.90;;;;;;5007528;28;20437;-90
2021/01/09 00:24:06;;;;;;;23.80;12.30;;;2.00;99.90;;;;;;5004806;28;20315;-90
2021/01/09 00:26:34;;;;;;;22.23;12.30;;;2.20;99.90;;;;;;5020128;28;20426;-89
2021/01/09 00:29:00;;;;;;;17.90;10.43;;;2.20;99.90;;;;;;5006045;28;20821;-89
2021/01/09 00:31:26;;;;;;;25.47;11.63;;;2.20;99.90;;;;;;5011587;28;20490;-90
2021/01/09 00:33:53;;;;;;;19.53;10.80;;;2.10;99.90;;;;;;4990051;28;20461;-91
2021/01/09 00:36:19;;;;;;;21.17;12.53;;;2.10;99.90;;;;;;5001060;28;20185;-91
2021/01/09 00:38:45;;;;;;;21.37;12.30;;;2.10;99.90;;;;;;4973404;28;20429;-88
2021/01/09 00:41:11;;;;;;;19.27;12.37;;;2.10;99.90;;;;;;4971968;28;20190;-88
2021/01/09 00:43:36;;;;;;;17.87;10.60;;;2.10;99.90;;;;;;4990764;28;20709;-88
2021/01/09 00:46:02;;;;;;;18.63;10.63;;;2.00;99.90;;;;;;5003834;28;20181;-88
2021/01/09 00:48:28;;;;;;;20.00;11.60;;;2.00;99.90;;;;;;4985164;28;20202;-89
2021/01/09 00:50:54;;;;;;;22.80;13.17;;;2.00;99.90;;;;;;5002762;28;20440;-87
2021/01/09 00:53:19;;;;;;;23.27;12.13;;;2.10;99.90;;;;;;4987693;28;20620;-88
2021/01/09 00:55:46;;;;;;;18.97;11.43;;;2.00;99.90;;;;;;4986261;28;20210;-87
2021/01/09 00:58:12;;;;;;;19.87;11.87;;;2.00;99.90;;;;;;4987101;28;20659;-88
2021/01/09 01:00:37;;;;;;;21.17;11.80;;;2.00;99.90;;;;;;5006311;28;20429;-87
2021/01/09 01:03:04;;;;;;;20.70;12.40;;;2.10;99.90;;;;;;4984735;28;20264;-90
2021/01/09 01:05:30;;;;;;;25.20;13.70;;;2.10;99.90;;;;;;4986936;28;20487;-88
2021/01/09 01:07:56;;;;;;;22.90;12.13;;;2.00;99.90;;;;;;4986014;28;20448;-88
2021/01/09 01:10:21;;;;;;;18.17;11.03;;;2.10;99.90;;;;;;4988665;28;20182;-89
2021/01/09 01:12:48;;;;;;;24.10;10.60;;;2.10;99.90;;;;;;5000549;28;20499;-87
2021/01/09 01:15:15;;;;;;;25.17;11.50;;;2.00;99.90;;;;;;4985829;28;20369;-89
2021/01/09 01:17:40;;;;;;;23.80;12.33;;;2.00;99.90;;;;;;4989827;28;20433;-88
2021/01/09 01:20:08;;;;;;;21.40;11.77;;;2.00;99.90;;;;;;4984123;28;20436;-89
2021/01/09 01:22:37;;;;;;;19.67;12.37;;;1.90;99.90;;;;;;4985518;28;20226;-87
2021/01/09 01:25:03;;;;;;;25.93;13.40;;;1.90;99.90;;;;;;4986731;28;20934;-89
2021/01/09 01:27:28;;;;;;;21.93;12.27;;;1.90;99.90;;;;;;4998629;28;21215;-87
2021/01/09 01:29:54;;;;;;;18.43;11.73;;;2.00;99.90;;;;;;4986039;28;20452;-90
2021/01/09 01:32:20;;;;;;;22.50;13.30;;;2.00;99.90;;;;;;4985425;28;20212;-88
2021/01/09 01:34:45;;;;;;;23.03;11.83;;;2.00;99.90;;;;;;4983917;28;20299;-90
2021/01/09 01:37:14;;;;;;;21.17;12.07;;;2.00;99.90;;;;;;4983506;28;20388;-89
2021/01/09 01:39:39;;;;;;;23.50;12.47;;;1.90;99.90;;;;;;4985679;28;20178;-89
2021/01/09 01:42:06;;;;;;;19.07;11.60;;;2.00;99.90;;;;;;4981727;28;20467;-89
2021/01/09 01:44:32;;;;;;;25.60;12.73;;;2.00;99.90;;;;;;4984738;28;20199;-90
2021/01/09 01:47:00;;;;;;;20.53;13.00;;;2.00;99.90;;;;;;4983044;28;20447;-87
2021/01/09 01:49:26;;;;;;;25.33;13.73;;;2.00;99.90;;;;;;4984920;28;20458;-86
2021/01/09 01:51:54;;;;;;;18.30;12.60;;;2.00;99.90;;;;;;4967766;28;20519;-87
2021/01/09 01:54:21;;;;;;;23.70;12.87;;;2.00;99.90;;;;;;5000366;28;20563;-89
2021/01/09 01:56:58;;;;;;;19.57;11.83;;;2.00;99.90;;;;;;4983968;28;20917;-88
2021/01/09 01:59:23;;;;;;;22.40;11.30;;;2.00;99.90;;;;;;4983413;28;20440;-88
2021/01/09 02:01:50;;;;;;;25.03;13.80;;;2.00;99.90;;;;;;4985758;28;20943;-90
2021/01/09 02:04:16;;;;;;;21.10;12.80;;;2.00;99.90;;;;;;4979700;28;20202;-88
2021/01/09 02:06:47;;;;;;;19.47;11.73;;;2.00;99.90;;;;;;4988126;28;20984;-88
2021/01/09 02:09:21;;;;;;;24.00;13.00;;;2.00;99.90;;;;;;4982075;28;20236;-88
2021/01/09 02:12:07;;;;;;;25.10;12.87;;;2.00;99.90;;;;;;4983953;28;20465;-88
2021/01/09 02:14:47;;;;;;;22.07;12.20;;;2.10;99.90;;;;;;4999439;28;20479;-88
2021/01/09 02:17:16;;;;;;;24.70;13.70;;;2.10;99.90;;;;;;4981976;28;20446;-89
2021/01/09 02:19:43;;;;;;;22.73;13.20;;;2.20;99.90;;;;;;4984829;28;20439;-90
2021/01/09 02:22:16;;;;;;;19.30;11.80;;;2.20;99.90;;;;;;4983433;28;20594;-89
2021/01/09 02:24:43;;;;;;;19.23;11.63;;;2.10;99.90;;;;;;4985336;28;20423;-89
2021/01/09 02:27:10;;;;;;;20.00;12.50;;;2.10;99.90;;;;;;4983571;28;20486;-88
2021/01/09 02:29:45;;;;;;;24.80;12.77;;;2.00;99.90;;;;;;4981978;28;20832;-86
2021/01/09 02:32:16;;;;;;;27.63;13.07;;;2.00;99.90;;;;;;4985285;28;20448;-90
2021/01/09 02:34:58;;;;;;;19.50;11.93;;;2.10;99.90;;;;;;4984226;28;20536;-89
2021/01/09 02:37:25;;;;;;;19.70;11.37;;;2.10;99.90;;;;;;4986273;28;20441;-89
2021/01/09 02:39:51;;;;;;;24.97;14.67;;;2.00;99.90;;;;;;4968823;28;20447;-88
2021/01/09 02:42:21;;;;;;;23.73;12.10;;;2.00;99.90;;;;;;4985914;28;20491;-91
2021/01/09 02:44:54;;;;;;;18.43;11.60;;;2.10;99.90;;;;;;4984457;28;20440;-90
2021/01/09 02:47:20;;;;;;;20.70;12.53;;;2.00;99.90;;;;;;4986202;28;20468;-88
2021/01/09 02:49:46;;;;;;;21.17;12.30;;;2.10;99.90;;;;;;4982940;28;20479;-87
2021/01/09 02:52:11;;;;;;;22.37;13.20;;;2.30;99.90;;;;;;4988583;28;20577;-90
2021/01/09 02:54:37;;;;;;;21.83;12.57;;;2.30;99.90;;;;;;4982358;28;20228;-89
2021/01/09 02:57:06;;;;;;;30.10;14.20;;;2.40;99.90;;;;;;4984717;28;20182;-91
2021/01/09 02:59:32;;;;;;;24.87;14.67;;;2.40;99.90;;;;;;4983786;28;20444;-87
2021/01/09 03:02:01;;;;;;;21.80;12.97;;;2.40;99.90;;;;;;4984046;28;20412;-90
2021/01/09 03:04:31;;;;;;;23.73;13.10;;;2.30;99.90;;;;;;4982246;28;20673;-87
2021/01/09 03:06:57;;;;;;;24.20;14.00;;;2.20;99.90;;;;;;5001504;28;20475;-90
2021/01/09 03:09:23;;;;;;;21.60;12.80;;;2.20;99.90;;;;;;4998325;28;20445;-90
2021/01/09 03:14:38;;;;;;;26.20;13.73;;;2.20;99.90;;;;;;4985900;28;20233;-89
2021/01/09 03:17:14;;;;;;;20.57;14.10;;;2.20;99.90;;;;;;4985243;28;20827;-88
2021/01/09 03:19:39;;;;;;;25.10;12.90;;;2.20;99.90;;;;;;4981762;28;20215;-88
2021/01/09 03:22:07;;;;;;;23.30;14.43;;;2.20;99.90;;;;;;4986586;28;20473;-89
2021/01/09 03:24:33;;;;;;;19.93;12.13;;;2.30;99.90;;;;;;4986417;28;20200;-90
2021/01/09 03:27:04;;;;;;;24.57;14.53;;;2.30;99.90;;;;;;4987106;28;20935;-90
2021/01/09 03:29:50;;;;;;;24.93;13.80;;;2.30;99.90;;;;;;4986079;28;20197;-88
2021/01/09 03:32:25;;;;;;;32.03;14.30;;;2.40;99.90;;;;;;4966863;28;20456;-87
2021/01/09 03:34:58;;;;;;;26.87;14.50;;;2.40;99.90;;;;;;4999670;28;20985;-89
2021/01/09 03:37:33;;;;;;;25.27;14.97;;;2.40;99.90;;;;;;4986596;28;20455;-87
2021/01/09 03:40:03;;;;;;;28.50;13.93;;;2.40;99.90;;;;;;4986695;28;20938;-89
2021/01/09 03:43:10;;;;;;;27.00;14.50;;;2.50;99.90;;;;;;4987582;28;20452;-88
2021/01/09 03:45:51;;;;;;;24.90;13.80;;;2.50;99.90;;;;;;4984639;28;20506;-90
2021/01/09 03:48:19;;;;;;;25.17;13.83;;;2.50;99.90;;;;;;4969395;28;20456;-89
2021/01/09 03:50:45;;;;;;;27.27;14.40;;;2.40;99.90;;;;;;5001183;28;20436;-88
2021/01/09 03:53:16;;;;;;;27.13;13.80;;;2.40;99.90;;;;;;4987022;28;20876;-91
2021/01/09 03:55:48;;;;;;;29.30;15.37;;;2.30;99.90;;;;;;4972105;28;20492;-90
2021/01/09 03:58:17;;;;;;;31.60;14.60;;;2.40;99.90;;;;;;4986655;28;20452;-88
2021/01/09 04:00:48;;;;;;;29.93;15.47;;;2.40;99.90;;;;;;4989190;28;20470;-88
2021/01/09 04:03:17;;;;;;;28.00;14.03;;;2.30;99.90;;;;;;4988222;28;20841;-90
2021/01/09 04:05:45;;;;;;;31.93;14.63;;;2.40;99.90;;;;;;4988151;28;20492;-87
2021/01/09 04:08:11;;;;;;;25.47;15.27;;;2.40;99.90;;;;;;4988838;28;20433;-90
2021/01/09 04:10:39;;;;;;;32.73;13.60;;;2.50;99.90;;;;;;4995124;28;20977;-90
2021/01/09 04:13:05;;;;;;;24.03;14.30;;;2.50;99.90;;;;;;5015436;28;20225;-90
2021/01/09 04:15:33;;;;;;;23.00;13.20;;;2.40;99.90;;;;;;5005182;28;20499;-88
2021/01/09 04:17:59;;;;;;;26.60;13.87;;;2.40;99.90;;;;;;5010648;28;20204;-92
2021/01/09 04:20:25;;;;;;;23.37;13.53;;;2.30;99.90;;;;;;5010566;28;20431;-91
2021/01/09 04:22:50;;;;;;;26.60;15.03;;;2.30;99.90;;;;;;5007513;28;20197;-89
2021/01/09 04:25:21;;;;;;;26.83;13.73;;;2.30;99.90;;;;;;4996345;28;20214;-88
2021/01/09 04:27:50;;;;;;;25.47;12.70;;;2.40;99.90;;;;;;4989947;28;20272;-87
2021/01/09 04:30:16;;;;;;;25.60;13.30;;;2.30;99.90;;;;;;4984944;28;20495;-90
2021/01/09 04:32:42;;;;;;;22.83;14.87;;;2.30;99.90;;;;;;4987002;28;20455;-90
2021/01/09 04:35:08;;;;;;;20.90;12.87;;;2.30;99.90;;;;;;4984228;28;20500;-87
2021/01/09 04:37:36;;;;;;;24.70;13.30;;;2.30;99.90;;;;;;4985043;28;20250;-87
2021/01/09 04:40:07;;;;;;;28.03;14.43;;;2.30;99.90;;;;;;4985871;28;20445;-89
2021/01/09 04:42:35;;;;;;;19.17;12.57;;;2.20;99.90;;;;;;4999542;28;20610;-88
2021/01/09 04:45:05;;;;;;;20.77;12.87;;;2.20;99.90;;;;;;4999037;28;20532;-87
2021/01/09 04:47:37;;;;;;;22.33;13.20;;;2.10;99.90;;;;;;4987000;28;20439;-89
2021/01/09 04:50:03;;;;;;;22.70;12.63;;;2.00;99.90;;;;;;4986297;28;20480;-89
2021/01/09 04:52:35;;;;;;;24.50;13.20;;;1.80;99.90;;;;;;4984246;28;20449;-88
2021/01/09 04:55:04;;;;;;;22.90;12.30;;;1.70;99.90;;;;;;4986447;28;20468;-87
2021/01/09 04:57:31;;;;;;;28.10;12.37;;;1.60;99.90;;;;;;5000541;28;20981;-87
2021/01/09 04:59:57;;;;;;;32.50;13.17;;;1.50;99.90;;;;;;4985577;28;20472;-85
2021/01/09 05:02:24;;;;;;;22.37;13.07;;;1.30;99.90;;;;;;4967421;28;21888;-87
2021/01/09 05:04:50;;;;;;;28.67;13.50;;;1.20;99.90;;;;;;4983194;28;20641;-89
2021/01/09 05:07:16;;;;;;;28.63;12.70;;;1.10;99.90;;;;;;4985288;28;20939;-86
2021/01/09 05:09:46;;;;;;;29.97;13.53;;;1.20;99.90;;;;;;4984970;28;20503;-88
2021/01/09 05:12:11;;;;;;;25.97;15.37;;;1.10;99.90;;;;;;4969630;28;20653;-86
2021/01/09 05:14:38;;;;;;;26.20;14.00;;;1.10;99.90;;;;;;4983831;28;20460;-88
2021/01/09 05:17:11;;;;;;;29.47;14.30;;;1.20;99.90;;;;;;4987040;28;20224;-87
2021/01/09 05:19:37;;;;;;;24.07;14.10;;;1.10;99.90;;;;;;4983070;28;20440;-88
2021/01/09 05:22:03;;;;;;;25.70;12.20;;;1.10;99.90;;;;;;4986983;28;20451;-85
2021/01/09 05:24:33;;;;;;;27.87;12.50;;;1.10;99.90;;;;;;4983056;28;20198;-88
2021/01/09 05:26:59;;;;;;;22.10;13.43;;;1.20;99.90;;;;;;4987715;28;20513;-89
2021/01/09 05:29:27;;;;;;;25.43;14.20;;;1.20;99.90;;;;;;4987588;28;20551;-88
2021/01/09 05:31:57;;;;;;;23.17;13.43;;;1.20;99.90;;;;;;4986689;28;20619;-84
2021/01/09 05:34:23;;;;;;;29.00;14.70;;;1.20;99.90;;;;;;4984667;28;20642;-84
2021/01/09 05:36:48;;;;;;;29.97;13.53;;;1.20;99.90;;;;;;4988374;28;21007;-87
2021/01/09 05:39:14;;;;;;;34.20;15.00;;;1.20;99.90;;;;;;4987418;28;20237;-88
2021/01/09 05:41:45;;;;;;;32.53;15.40;;;1.20;99.90;;;;;;4988791;28;20213;-86
2021/01/09 05:44:11;;;;;;;26.63;14.40;;;1.30;99.90;;;;;;4986744;28;20687;-87
2021/01/09 05:46:39;;;;;;;25.83;15.10;;;1.30;99.90;;;;;;4988540;28;21172;-87
2021/01/09 05:49:05;;;;;;;22.17;13.63;;;1.20;99.90;;;;;;4968883;28;20453;-87
2021/01/09 05:51:35;;;;;;;24.23;12.53;;;1.10;99.90;;;;;;4994163;28;20538;-88
2021/01/09 05:54:00;;;;;;;26.17;13.03;;;1.10;99.90;;;;;;4995775;28;20512;-87
2021/01/09 05:56:26;;;;;;;26.07;13.77;;;1.00;99.90;;;;;;4992288;28;21027;-89
2021/01/09 05:58:54;;;;;;;29.00;13.83;;;1.00;99.90;;;;;;4994826;28;20199;-86
2021/01/09 06:01:27;;;;;;;32.87;14.73;;;0.90;99.90;;;;;;4995811;28;20573;-85
2021/01/09 06:07:21;;;;;;;22.90;12.80;;;0.80;99.90;;;;;;4991447;28;20587;-87
2021/01/09 06:09:57;;;;;;;26.57;14.30;;;0.70;99.90;;;;;;4998029;28;20429;-88
2021/01/09 06:12:22;;;;;;;24.67;13.50;;;0.70;99.90;;;;;;4995640;28;20459;-90
2021/01/09 06:14:50;;;;;;;30.57;15.17;;;0.60;99.90;;;;;;4994428;28;20560;-85
2021/01/09 06:17:17;;;;;;;30.17;15.13;;;0.50;99.90;;;;;;4990766;28;20199;-87
2021/01/09 06:19:43;;;;;;;21.63;12.83;;;0.50;99.90;;;;;;4992493;28;20438;-91
2021/01/09 06:22:10;;;;;;;27.30;13.83;;;0.40;99.90;;;;;;5004982;28;20444;-87
2021/01/09 06:24:36;;;;;;;26.60;13.33;;;0.40;99.90;;;;;;4992770;28;20246;-86
2021/01/09 06:27:02;;;;;;;24.10;12.70;;;0.30;99.90;;;;;;4991775;28;20953;-90
2021/01/09 06:29:29;;;;;;;26.20;14.53;;;0.40;99.90;;;;;;4992690;28;20195;-88
2021/01/09 06:31:55;;;;;;;26.77;12.63;;;0.50;99.90;;;;;;4988018;28;20450;-86
2021/01/09 06:34:25;;;;;;;29.87;13.00;;;0.40;99.90;;;;;;4992006;28;20468;-84
2021/01/09 06:37:03;;;;;;;29.33;13.00;;;0.40;99.90;;;;;;4988352;28;20209;-86
2021/01/09 06:39:37;;;;;;;28.33;14.53;;;0.50;99.90;;;;;;4989385;28;20708;-90
2021/01/09 06:42:05;;;;;;;28.40;13.60;;;0.60;99.90;;;;;;4991843;28;20435;-90
2021/01/09 06:44:32;;;;;;;28.90;14.43;;;0.70;99.90;;;;;;4992925;28;20479;-88
2021/01/09 06:46:58;;;;;;;32.30;15.17;;;0.70;99.90;;;;;;4993378;28;20433;-90
2021/01/09 06:49:27;;;;;;;40.77;13.60;;;0.70;99.90;;;;;;4992479;28;20923;-86
2021/01/09 06:52:02;;;;;;;32.47;16.07;;;0.70;99.90;;;;;;4989839;28;20510;-85
2021/01/09 06:54:46;;;;;;;33.97;13.77;;;0.80;99.90;;;;;;4975241;28;20491;-88
2021/01/09 06:57:21;;;;;;;26.57;14.80;;;0.90;99.90;;;;;;4992112;28;21019;-85
2021/01/09 06:59:51;;;;;;;27.90;15.00;;;0.90;99.90;;;;;;4970422;28;20516;-88
2021/01/09 07:02:26;;;;;;;27.53;14.30;;;0.80;99.90;;;;;;4988704;28;20460;-87
2021/01/09 07:05:02;;;;;;;27.27;13.97;;;0.90;99.90;;;;;;4986047;28;20436;-90
2021/01/09 07:07:30;;;;;;;27.53;13.77;;;0.80;99.90;;;;;;4984809;28;20516;-83
2021/01/09 07:10:31;;;;;;;31.27;13.93;;;0.80;99.90;;;;;;4988589;28;20946;-87
2021/01/09 07:12:58;;;;;;;28.10;12.67;;;0.70;99.90;;;;;;4974384;28;20798;-82
2021/01/09 07:15:26;;;;;;;17.40;10.63;;;0.70;99.90;;;;;;4984239;28;20522;-84
2021/01/09 07:17:55;;;;;;;20.00;11.93;;;0.60;99.90;;;;;;4983534;28;20746;-83
2021/01/09 07:20:23;;;;;;;23.73;12.73;;;0.60;99.90;;;;;;4982504;28;20517;-85
2021/01/09 07:22:51;;;;;;;23.23;12.30;;;0.60;99.90;;;;;;4983441;28;20945;-84
2021/01/09 07:25:45;;;;;;;22.93;12.83;;;0.50;99.90;;;;;;4976022;28;20453;-87
2021/01/09 07:28:24;;;;;;;19.87;10.67;;;0.40;99.90;;;;;;4983987;28;20490;-85
2021/01/09 07:31:05;;;;;;;27.40;14.33;;;0.30;99.90;;;;;;4999463;28;20428;-86
2021/01/09 07:33:32;;;;;;;31.80;12.80;;;0.30;99.90;;;;;;4981001;28;20477;-86
2021/01/09 07:36:02;;;;;;;31.77;12.67;;;0.20;99.90;;;;;;4981461;28;21038;-85
2021/01/09 07:38:27;;;;;;;25.47;13.00;;;0.20;99.90;;;;;;4982478;28;20810;-85
2021/01/09 07:40:58;;;;;;;27.90;10.97;;;0.00;99.90;;;;;;4983059;28;20870;-85
2021/01/09 07:43:46;;;;;;;24.93;11.27;;;-0.10;99.90;;;;;;4982807;28;20455;-85
2021/01/09 07:46:21;;;;;;;30.70;12.70;;;-0.10;99.90;;;;;;4984367;28;20447;-87
2021/01/09 07:48:47;;;;;;;31.43;14.57;;;0.00;99.90;;;;;;4984889;28;20445;-82
2021/01/09 07:51:13;;;;;;;26.23;12.53;;;-0.10;99.90;;;;;;4977943;28;20497;-85
2021/01/09 07:53:57;;;;;;;24.47;13.13;;;0.00;99.90;;;;;;4984142;28;20462;-85
2021/01/09 07:56:38;;;;;;;26.57;12.53;;;0.00;99.90;;;;;;4982634;28;21203;-85
2021/01/09 07:59:06;;;;;;;21.10;11.57;;;0.10;99.90;;;;;;4995324;28;20473;-79
2021/01/09 08:01:42;;;;;;;28.80;14.80;;;0.20;99.90;;;;;;4983782;28;20491;-84
2021/01/09 08:04:10;;;;;;;34.63;14.70;;;0.30;99.90;;;;;;4982677;28;20542;-82
2021/01/09 08:06:40;;;;;;;31.77;14.77;;;0.40;99.90;;;;;;4982257;28;20560;-85
2021/01/09 08:09:06;;;;;;;24.53;13.13;;;0.50;99.90;;;;;;4996519;28;20534;-88
2021/01/09 08:11:39;;;;;;;28.80;14.00;;;0.60;99.90;;;;;;4986030;28;20461;-85
2021/01/09 08:14:05;;;;;;;24.10;14.10;;;0.60;99.90;;;;;;4988987;28;20502;-86
2021/01/09 08:16:30;;;;;;;26.97;13.93;;;0.60;99.90;;;;;;4970329;28;20902;-86
2021/01/09 08:19:16;;;;;;;28.63;12.67;;;0.70;99.90;;;;;;4994457;28;20197;-85
2021/01/09 08:21:44;;;;;;;32.03;16.90;;;0.90;99.90;;;;;;4993691;28;20219;-81
2021/01/09 08:24:19;;;;;;;30.60;14.70;;;1.00;99.90;;;;;;4986407;28;20475;-86
2021/01/09 08:26:50;;;;;;;31.80;17.33;;;0.90;99.90;;;;;;4974309;28;20443;-87
2021/01/09 08:29:16;;;;;;;41.83;15.20;;;0.90;99.90;;;;;;4989413;28;20448;-86
2021/01/09 08:31:41;;;;;;;30.13;12.80;;;0.90;99.90;;;;;;5000120;28;20558;-86
2021/01/09 08:34:10;;;;;;;24.73;14.13;;;0.90;99.90;;;;;;4987635;28;20229;-86
2021/01/09 08:36:36;;;;;;;29.40;15.60;;;0.80;99.90;;;;;;4990775;28;20184;-85
2021/01/09 08:39:08;;;;;;;30.27;15.50;;;0.70;99.90;;;;;;4990231;28;20450;-84
2021/01/09 08:41:42;;;;;;;29.33;16.17;;;0.60;99.90;;;;;;4987980;28;20455;-87
2021/01/09 08:44:09;;;;;;;33.53;15.37;;;0.60;99.90;;;;;;4987607;28;20452;-84
2021/01/09 08:46:39;;;;;;;34.20;16.03;;;0.60;99.90;;;;;;4988295;28;20546;-83
2021/01/09 08:49:09;;;;;;;27.43;14.23;;;0.60;99.90;;;;;;4989129;28;20475;-83
2021/01/09 08:51:39;;;;;;;30.20;15.60;;;0.60;99.90;;;;;;5003375;28;20472;-88
2021/01/09 08:54:12;;;;;;;37.63;17.30;;;0.70;99.90;;;;;;4988664;28;20467;-83
2021/01/09 08:56:38;;;;;;;30.07;15.90;;;0.70;99.90;;;;;;4989573;28;20505;-86
2021/01/09 08:59:06;;;;;;;33.87;17.33;;;0.60;99.90;;;;;;4992235;28;20510;-82
2021/01/09 09:01:46;;;;;;;33.23;16.83;;;0.70;99.90;;;;;;4989111;28;20500;-85
2021/01/09 09:04:12;;;;;;;27.60;15.20;;;0.90;99.90;;;;;;4986594;28;20458;-87
2021/01/09 09:06:42;;;;;;;32.07;15.63;;;0.90;99.90;;;;;;4991319;28;20540;-85
2021/01/09 09:09:09;;;;;;;30.67;15.93;;;1.00;99.90;;;;;;4991430;28;20566;-84
2021/01/09 09:11:35;;;;;;;30.43;16.03;;;1.00;99.90;;;;;;4994106;28;20471;-85
2021/01/09 09:14:08;;;;;;;30.00;16.20;;;1.00;99.90;;;;;;4990377;28;20491;-85
2021/01/09 09:16:38;;;;;;;31.27;15.60;;;0.90;99.90;;;;;;4987966;28;20468;-89
2021/01/09 09:19:12;;;;;;;30.30;17.33;;;1.00;99.90;;;;;;4987742;28;21000;-86
2021/01/09 09:21:43;;;;;;;39.37;16.90;;;1.00;99.90;;;;;;4986588;28;20432;-85
2021/01/09 09:24:09;;;;;;;35.07;15.33;;;0.90;99.90;;;;;;4984691;28;20518;-85
2021/01/09 09:26:35;;;;;;;37.63;16.77;;;0.90;99.90;;;;;;4985852;28;20488;-86
2021/01/09 09:29:01;;;;;;;34.87;18.27;;;0.90;99.90;;;;;;4960000;28;20882;-88
2021/01/09 09:31:32;;;;;;;34.97;17.93;;;1.00;99.90;;;;;;4988977;28;20209;-85
2021/01/09 09:33:59;;;;;;;32.03;15.30;;;1.00;99.90;;;;;;4969871;28;20823;-89
2021/01/09 09:36:25;;;;;;;41.57;18.17;;;1.00;99.90;;;;;;4984520;28;20467;-85
2021/01/09 09:38:52;;;;;;;32.50;17.00;;;1.00;99.90;;;;;;4982986;28;20487;-83
2021/01/09 09:41:17;;;;;;;33.60;16.80;;;1.10;99.90;;;;;;4986420;28;20922;-84
2021/01/09 09:43:57;;;;;;;29.27;15.27;;;1.20;99.90;;;;;;4980664;28;20507;-85
2021/01/09 09:46:23;;;;;;;32.00;18.10;;;1.30;99.90;;;;;;4987095;28;20196;-88
2021/01/09 09:48:49;;;;;;;37.63;16.80;;;1.30;99.90;;;;;;4985120;28;20447;-87
2021/01/09 09:51:14;;;;;;;31.00;16.70;;;1.40;99.90;;;;;;4986585;28;20430;-85
2021/01/09 09:53:50;;;;;;;33.40;17.47;;;1.60;99.90;;;;;;4986575;28;20241;-86
2021/01/09 09:56:21;;;;;;;26.00;14.17;;;1.80;99.90;;;;;;4985696;28;20696;-85
2021/01/09 09:58:59;;;;;;;27.10;13.73;;;2.00;99.90;;;;;;4982776;28;20438;-85
2021/01/09 10:01:24;;;;;;;24.73;13.30;;;2.10;99.90;;;;;;4987244;28;20450;-84
2021/01/09 10:03:50;;;;;;;23.70;13.33;;;2.30;99.90;;;;;;4984780;28;20446;-85
2021/01/09 10:06:17;;;;;;;25.30;14.03;;;2.40;99.90;;;;;;4985419;28;20208;-86
2021/01/09 10:08:43;;;;;;;24.23;13.00;;;2.50;99.90;;;;;;4987249;28;20444;-86
2021/01/09 10:11:10;;;;;;;23.83;12.23;;;2.50;99.90;;;;;;4986728;28;20455;-87
2021/01/09 10:13:36;;;;;;;25.10;13.00;;;2.50;99.90;;;;;;4985787;28;20874;-86
2021/01/09 10:16:03;;;;;;;20.50;12.20;;;2.60;99.90;;;;;;4983083;28;20659;-86
2021/01/09 10:18:30;;;;;;;20.43;11.63;;;2.80;99.90;;;;;;4970493;28;20959;-86
2021/01/09 10:20:56;;;;;;;25.37;12.87;;;2.70;99.90;;;;;;4996152;28;20506;-87
2021/01/09 10:23:23;;;;;;;22.10;12.20;;;2.70;99.90;;;;;;4986254;28;20450;-87
2021/01/09 10:25:49;;;;;;;24.80;12.87;;;2.40;99.90;;;;;;4999182;28;20979;-87
2021/01/09 10:28:14;;;;;;;21.27;12.20;;;2.30;99.90;;;;;;4985585;28;20843;-87
2021/01/09 10:30:40;;;;;;;24.70;13.20;;;2.30;99.90;;;;;;4973020;28;20502;-88
2021/01/09 10:33:07;;;;;;;25.30;13.07;;;2.40;99.90;;;;;;4984212;28;20698;-88
2021/01/09 10:35:33;;;;;;;28.07;14.13;;;2.40;99.90;;;;;;4988139;28;20461;-88
2021/01/09 10:37:59;;;;;;;25.60;14.00;;;2.50;99.90;;;;;;5002208;28;20452;-87
2021/01/09 10:40:24;;;;;;;25.07;13.93;;;2.50;99.90;;;;;;4967703;28;20451;-88
2021/01/09 10:42:50;;;;;;;17.00;9.50;;;2.40;99.90;;;;;;4986555;28;20248;-88
2021/01/09 10:45:16;;;;;;;21.40;12.83;;;2.40;99.90;;;;;;4993220;28;20257;-89
2021/01/09 10:47:42;;;;;;;21.13;12.10;;;2.40;99.90;;;;;;4989024;28;20668;-90
2021/01/09 10:50:09;;;;;;;28.60;16.17;;;2.50;99.90;;;;;;4982027;28;20213;-90
2021/01/09 10:52:34;;;;;;;17.60;11.13;;;2.60;99.90;;;;;;4985478;28;20453;-86
2021/01/09 10:55:01;;;;;;;26.43;12.13;;;2.70;99.90;;;;;;4988861;28;20467;-90
2021/01/09 10:57:27;;;;;;;28.33;13.03;;;2.60;99.90;;;;;;4991428;28;20178;-87
2021/01/09 10:59:53;;;;;;;22.33;13.30;;;2.70;99.90;;;;;;4976698;28;20484;-88
2021/01/09 11:02:18;;;;;;;19.57;11.43;;;2.80;99.90;;;;;;4982789;28;20197;-87
2021/01/09 11:04:44;;;;;;;25.10;14.57;;;2.80;99.90;;;;;;4986394;28;20194;-89
2021/01/09 11:07:13;;;;;;;23.90;12.97;;;2.80;99.90;;;;;;4987330;28;20207;-89
2021/01/09 11:09:39;;;;;;;22.00;13.90;;;2.70;99.90;;;;;;4982145;28;20228;-86
2021/01/09 11:12:10;;;;;;;24.13;12.80;;;2.80;99.90;;;;;;4990620;28;20469;-85
2021/01/09 11:15:07;;;;;;;24.40;13.30;;;3.10;99.90;;;;;;4983120;28;20196;-90
2021/01/09 11:18:11;;;;;;;;;;;;;;;;;;;;;
2021/01/09 11:20:47;;;;;;;20.30;10.20;;;3.60;99.90;;;;;;4985085;28;20461;-90
2021/01/09 11:23:16;;;;;;;28.50;14.00;;;3.70;99.90;;;;;;4987373;28;20448;-89
2021/01/09 11:25:57;;;;;;;23.80;12.80;;;3.80;99.90;;;;;;4987257;28;21326;-86
2021/01/09 11:28:36;;;;;;;23.00;14.13;;;3.70;99.90;;;;;;4986926;28;20864;-86
2021/01/09 11:37:54;;;;;;;19.40;11.53;;;3.40;99.90;;;;;;4983508;28;20444;-89
2021/01/09 11:41:48;;;;;;;22.33;11.10;;;3.20;99.90;;;;;;4977447;28;20449;-90
2021/01/09 11:48:27;;;;;;;24.73;13.00;;;3.60;99.90;;;;;;4977278;28;20491;-90
2021/01/09 11:51:46;;;;;;;;;;;;;;;;;;;;;
2021/01/09 11:54:14;;;;;;;23.80;13.47;;;3.60;99.90;;;;;;4990395;28;20479;-89
2021/01/09 11:56:40;;;;;;;24.63;13.17;;;4.10;99.90;;;;;;4986717;28;20973;-88
2021/01/09 12:02:40;;;;;;;17.97;10.20;;;4.50;99.90;;;;;;4989225;28;20263;-89
2021/01/09 12:05:37;;;;;;;25.20;13.57;;;4.20;99.90;;;;;;4990898;28;20519;-89
2021/01/09 12:08:41;;;;;;;22.77;12.43;;;4.20;99.90;;;;;;4986241;28;20468;-89
2021/01/09 12:11:19;;;;;;;19.57;10.73;;;4.20;99.90;;;;;;4990983;28;20535;-87
2021/01/09 12:13:55;;;;;;;20.80;10.87;;;4.00;99.90;;;;;;4985760;28;20453;-85
2021/01/09 12:16:32;;;;;;;19.43;11.37;;;3.80;99.90;;;;;;5003608;28;20467;-86
2021/01/09 12:18:59;;;;;;;21.47;10.87;;;3.40;99.90;;;;;;4969494;28;20436;-87
2021/01/09 12:21:46;;;;;;;24.43;13.10;;;3.00;99.90;;;;;;4962589;28;21196;-87
2021/01/09 12:24:12;;;;;;;30.00;14.60;;;2.90;99.90;;;;;;4974030;28;21021;-87
2021/01/09 12:26:42;;;;;;;17.20;11.10;;;2.90;99.90;;;;;;4986833;28;20476;-84
2021/01/09 12:29:55;;;;;;;25.70;12.47;;;3.00;99.90;;;;;;4984842;28;20289;-82
2021/01/09 12:32:26;;;;;;;19.80;11.43;;;2.90;99.90;;;;;;4924716;28;20470;-88
2021/01/09 12:35:06;;;;;;;20.43;12.83;;;2.70;99.90;;;;;;4985540;28;20998;-86
2021/01/09 12:37:37;;;;;;;22.90;12.20;;;2.70;99.90;;;;;;4985833;28;20471;-86
2021/01/09 12:40:19;;;;;;;18.83;10.33;;;2.90;99.90;;;;;;4980605;28;20994;-91
2021/01/09 12:43:12;;;;;;;25.17;12.93;;;3.00;99.90;;;;;;4981877;28;20937;-90
2021/01/09 12:45:58;;;;;;;20.77;11.90;;;3.50;99.90;;;;;;4964518;28;21141;-85
2021/01/09 12:48:28;;;;;;;19.47;10.80;;;3.80;99.90;;;;;;5000559;28;20429;-88
2021/01/09 12:51:06;;;;;;;21.80;11.57;;;3.60;99.90;;;;;;4957866;28;20463;-87
2021/01/09 12:57:07;;;;;;;21.50;11.77;;;3.40;99.90;;;;;;4986097;28;20444;-92
2021/01/09 13:05:58;;;;;;;18.03;10.50;;;3.20;99.90;;;;;;5090316;22;21105;-88
2021/01/09 13:08:40;;;;;;;22.33;9.10;;;3.30;99.90;;;;;;4986117;28;20440;-88
2021/01/09 13:11:17;;;;;;;19.93;12.00;;;3.30;99.90;;;;;;5003883;28;20432;-88
2021/01/09 13:13:45;;;;;;;19.00;10.40;;;3.20;99.90;;;;;;5010134;28;20449;-91
2021/01/09 13:16:11;;;;;;;16.30;11.10;;;3.10;99.90;;;;;;4987830;28;20564;-88
2021/01/09 13:18:37;;;;;;;22.83;10.50;;;3.20;99.90;;;;;;5003114;28;20500;-86
2021/01/09 13:21:04;;;;;;;19.23;11.20;;;3.20;99.90;;;;;;4990081;28;20440;-86
2021/01/09 13:23:32;;;;;;;18.57;10.10;;;3.20;99.90;;;;;;4982089;28;20206;-85
2021/01/09 13:26:05;;;;;;;20.87;11.30;;;3.20;99.90;;;;;;4978328;28;20456;-86
2021/01/09 13:28:31;;;;;;;16.63;9.83;;;3.20;99.90;;;;;;4984877;28;20456;-85
2021/01/09 13:30:58;;;;;;;12.10;6.57;;;3.30;99.90;;;;;;4988735;28;20926;-86